AirNav   Phillips 66 Aviation Fuel
 
 746 users online  

FA74 Romor Ranch Airport
Ochopee, Florida, USA

GOING TO OCHOPEE?


FAA INFORMATION EFFECTIVE 08 NOVEMBER 2018

Location

FAA Identifier: FA74
Lat/Long: 25-58-51.3380N / 081-03-24.2520W
25-58.855633N / 081-03.404200W
25.9809272 / -81.0567367
(estimated)
Elevation: 12 ft. / 4 m (estimated)
Variation: 02W (1985)
From city: 15 miles NE of OCHOPEE, FL
Time zone: UTC -5 (UTC -4 during Daylight Saving Time)
Zip code: 34141

Airport Operations

Airport use: Private use. Permission required prior to landing
Activation date: 01/1992
Control tower: no
ARTCC: MIAMI CENTER
FSS: MIAMI FLIGHT SERVICE STATION
Attendance: UNATNDD
Wind indicator: no
Segmented circle: no

Airport Communications

WX AWOS-3 at TNT (11 nm SE): 119.075 ((239) 695-9198)

Nearby radio navigation aids

VOR radial/distance  VOR name  Freq  Var
DHPr290/39.7DOLPHIN VORTAC113.9004W

 
NDB name  Hdg/Dist  Freq  Var  ID
MONRY346/7.622705WTN - -.

Airport Services

Runway Information

Runway 12/30

Dimensions: 1860 x 75 ft. / 567 x 23 m
Surface: turf
RUNWAY 12  RUNWAY 30
Traffic pattern: leftleft
Obstructions: 50 ft. trees
PINE TREES ALL DIRECTIONS EXCEPT APCH ENDS RWY 12-30.
none

Airport Ownership and Management from official FAA records

Ownership: Privately-owned
Owner: SUE NULMAN
98610 OVERSEAS HWY
KEY LARGO, FL 33037
Phone 786-258-2227
Manager: SUE NULMAN
98610 OVERSEAS HWY
KEY LARGO, FL 33037
Phone 786-258-2227

Airport Operational Statistics

Aircraft based on the field: 1
Single engine airplanes: 1
    

Instrument Procedures

There are no published instrument procedures at FA74.

Some nearby airports with instrument procedures:

KTNT - Dade-Collier Training and Transition Airport (11 nm SE)
KIMM - Immokalee Regional Airport (33 nm NW)
KMKY - Marco Island Airport (33 nm W)
KTMB - Miami Executive Airport (39 nm SE)
X51 - Miami Homestead General Aviation Airport (40 nm SE)
 
Loc | Ops | Rwys | IFR | FBO | Links
Com | Nav | Svcs | Stats | Notes

Reliance Aviation
AirBoss

 
Area around FA74 (Romor Ranch Airport)
 
Road maps at: MapQuest Bing Google
 
Aerial photo
No photo
 
Sectional chart

 
Airport distance calculator
Flying to Romor Ranch Airport? Find the distance to fly.

From to FA74

Sunrise and sunset
Times for 15-Nov-2018
 Local
(UTC-5)
 Zulu
(UTC)
Morning civil twilight06:1911:19
Sunrise06:4311:43
Sunset17:3422:34
Evening civil twilight17:5922:59

Current date and time
Zulu (UTC)  16-Nov-2018 04:27:10
Local (UTC-5)  15-Nov-2018 23:27:10
 
METAR
KIMM 
33nm NW 
160415Z AUTO 33005KT 10SM CLR 17/15 A3007 RMK A01
KMKY 
33nm W 
160356Z AUTO 35007KT 10SM CLR 19/16 A3008 RMK AO2 SLP184 T01890161
KTMB 
39nm SE 
160253Z 34014KT 10SM CLR 21/17 A3003 RMK AO2 SLP167 T02060167 51021
KAPF 
39nm W 
160353Z AUTO 36006KT 10SM CLR 19/15 A3007 RMK AO2 SLP181 T01890150
KMIA 
42nm E 
160353Z 32007KT 10SM FEW015 FEW040 FEW050 20/18 A3004 RMK SLP172 T02000178
KOPF 
42nm E 
160353Z 33009KT 10SM FEW017 21/18 A3004 RMK AO2 SLP175 T02060183
KHWO 
44nm E 
160353Z AUTO 33011KT 10SM CLR 21/17 A3005 RMK AO2 SLP176 T02110172
KHST 
48nm SE 
160356Z AUTO 31011KT 10SM CLR 20/17 A3002 RMK AO2 SLP169 T02010167 FZRANO VISNO RWY24 $
KFXE 
49nm E 
160353Z 33010KT 10SM FEW020 21/18 A3003 RMK AO2 SLP172 T02060178
KFLL 
49nm E 
160353Z 33005KT 10SM FEW050 FEW130 20/19 A3003 RMK AO2 SLP167 T02000189
TAF
KTMB 
39nm SE 
152118Z 1521/1618 30008KT P6SM SCT025 BKN050 FM160100 34008KT P6SM SCT025 BKN150 FM160600 34010KT P6SM FEW015 SCT025 BKN050
KAPF 
39nm W 
152118Z 1521/1618 33011KT P6SM FEW025 SCT080 BKN150 FM160100 35008KT P6SM SCT025 SCT150 FM160600 35010KT P6SM FEW015 SCT025 BKN050
KMIA 
42nm E 
152118Z 1521/1624 31008KT P6SM SCT025 BKN050 FM160100 32006KT P6SM SCT025 BKN150 FM160600 34010KT P6SM FEW015 SCT025 BKN050 FM161800 01010KT P6SM SCT025 BKN050
KOPF 
42nm E 
152118Z 1521/1618 31010KT P6SM SCT025 BKN050 FM160100 33008KT P6SM SCT025 BKN150 FM160600 34010KT P6SM FEW015 SCT025 BKN050
KHST 
48nm SE 
160000Z 1600/1706 33012G18KT 9999 SCT035 BKN050 QNH2990INS BECMG 1611/1612 34012KT 9999 SCT035 QNH2996INS BECMG 1621/1622 36009KT 9999 FEW025 QNH3001INS TX29/1619Z TN15/1612Z
NOTAMs
Click for the latest NOTAMs
NOTAMs are issued by the DoD/FAA and will open in a separate window not controlled by AirNav.

 

 
 

Would you like to see your business listed on this page?

 If your business provides an interesting product or service to pilots, flight crews, aircraft, or users of the Romor Ranch Airport, you should consider listing it here.  To start the listing process, click on the button below
 
Add a business
 

Other Pages about Romor Ranch Airport

Update a link
 
Copyright © AirNav, LLC. All rights reserved. Privacy Policy  Contact